Time;durP1;ratioP1;P1;durP2;ratioP2;P2;SDS_P1;SDS_P2;PMS_P1;PMS_P2;Temp;Humidity;BMP_temperature;BMP_pressure;BME280_temperature;BME280_humidity;BME280_pressure;Samples;Min_cycle;Max_cycle;Signal;HPM_P1;HPM_P2
2022/08/04 00:00:42;;;;;;;15.40;13.50;;;22.50;99.90;;;;;;4962256;28;20445;-82
2022/08/04 00:03:19;;;;;;;16.83;14.60;;;22.50;99.90;;;;;;4982290;28;20461;-82
2022/08/04 00:05:57;;;;;;;19.37;17.00;;;22.50;99.90;;;;;;4966212;28;20444;-81
2022/08/04 00:08:34;;;;;;;17.97;16.17;;;22.40;99.90;;;;;;4983600;28;20418;-82
2022/08/04 00:11:07;;;;;;;17.83;15.37;;;22.40;99.90;;;;;;4966076;28;20445;-81
2022/08/04 00:13:49;;;;;;;18.70;15.43;;;22.40;99.90;;;;;;4966152;28;20469;-82
2022/08/04 00:16:33;;;;;;;17.03;15.00;;;22.30;99.90;;;;;;4965921;28;20461;-82
2022/08/04 00:19:11;;;;;;;17.60;16.00;;;22.30;99.90;;;;;;4982754;28;20457;-82
2022/08/04 00:21:46;;;;;;;16.43;14.83;;;22.30;99.90;;;;;;4964659;28;20913;-82
2022/08/04 00:24:17;;;;;;;21.80;16.70;;;22.30;99.90;;;;;;4964540;28;20476;-82
2022/08/04 00:26:46;;;;;;;18.67;15.30;;;22.20;99.90;;;;;;4965178;28;20438;-81
2022/08/04 00:29:14;;;;;;;20.53;17.27;;;22.20;99.90;;;;;;4965993;28;20991;-82
2022/08/04 00:31:43;;;;;;;21.80;17.20;;;22.20;99.90;;;;;;4965402;28;20457;-81
2022/08/04 00:34:26;;;;;;;18.23;15.73;;;22.10;99.90;;;;;;4964145;28;20477;-81
2022/08/04 00:36:55;;;;;;;22.27;18.00;;;22.10;99.90;;;;;;4964365;28;20438;-82
2022/08/04 00:39:25;;;;;;;19.80;17.10;;;22.10;99.90;;;;;;4963510;28;20531;-82
2022/08/04 00:42:20;;;;;;;18.57;16.63;;;22.10;99.90;;;;;;4963997;28;20849;-81
2022/08/04 00:45:17;;;;;;;20.20;16.53;;;22.10;99.90;;;;;;4963884;28;20564;-81
2022/08/04 00:48:01;;;;;;;20.13;17.40;;;22.00;99.90;;;;;;4981427;28;20923;-81
2022/08/04 00:50:39;;;;;;;17.67;15.83;;;22.00;99.90;;;;;;4964344;28;20449;-81
2022/08/04 00:53:23;;;;;;;22.50;18.90;;;22.00;99.90;;;;;;4980840;28;20433;-82
2022/08/04 00:56:22;;;;;;;24.33;17.03;;;21.90;99.90;;;;;;4963323;28;20446;-81
2022/08/04 00:59:04;;;;;;;19.77;17.13;;;21.90;99.90;;;;;;4962879;28;20469;-81
2022/08/04 01:02:01;;;;;;;20.13;16.73;;;21.90;99.90;;;;;;4980785;28;20429;-80
2022/08/04 01:04:44;;;;;;;21.30;17.47;;;21.90;99.90;;;;;;4963244;28;20846;-81
2022/08/04 01:07:27;;;;;;;18.40;15.63;;;21.80;99.90;;;;;;4962584;28;20473;-81
2022/08/04 01:10:03;;;;;;;21.33;16.73;;;21.80;99.90;;;;;;4962689;28;20446;-81
2022/08/04 01:12:57;;;;;;;19.20;17.17;;;21.80;99.90;;;;;;4980141;28;20449;-81
2022/08/04 01:15:36;;;;;;;19.10;16.80;;;21.70;99.90;;;;;;4961634;28;20473;-81
2022/08/04 01:18:33;;;;;;;18.50;16.60;;;21.70;99.90;;;;;;4962554;28;20475;-81
2022/08/04 01:21:27;;;;;;;23.07;18.40;;;21.70;99.90;;;;;;4980275;28;20429;-81
2022/08/04 01:24:23;;;;;;;20.63;17.80;;;21.70;99.90;;;;;;4962301;28;20564;-81
2022/08/04 01:26:57;;;;;;;20.40;17.67;;;21.60;99.90;;;;;;4979814;28;20912;-81
2022/08/04 01:29:30;;;;;;;19.60;17.60;;;21.60;99.90;;;;;;4962905;28;20442;-80
2022/08/04 01:32:20;;;;;;;24.20;19.93;;;21.60;99.90;;;;;;4979672;28;20434;-80
2022/08/04 01:34:57;;;;;;;21.70;19.00;;;21.60;99.90;;;;;;4962628;28;21025;-81
2022/08/04 01:37:35;;;;;;;23.87;19.70;;;21.60;99.90;;;;;;4980099;28;20887;-81
2022/08/04 01:40:06;;;;;;;18.60;14.70;;;21.50;99.90;;;;;;4961796;28;20481;-81
2022/08/04 01:42:36;;;;;;;23.03;18.03;;;21.50;99.90;;;;;;4961781;28;20508;-80
2022/08/04 01:45:08;;;;;;;23.77;18.23;;;21.50;99.90;;;;;;4979739;28;20470;-81
2022/08/04 01:47:37;;;;;;;21.03;18.57;;;21.50;99.90;;;;;;4962194;28;20577;-81
2022/08/04 01:50:08;;;;;;;19.93;18.03;;;21.50;99.90;;;;;;4961786;28;20458;-80
2022/08/04 01:52:38;;;;;;;20.67;18.47;;;21.40;99.90;;;;;;4962123;28;20457;-80
2022/08/04 01:55:09;;;;;;;24.20;19.73;;;21.50;99.90;;;;;;4961819;28;20481;-81
2022/08/04 01:57:42;;;;;;;21.80;19.50;;;21.40;99.90;;;;;;4961975;28;20449;-80
2022/08/04 02:00:14;;;;;;;23.50;19.47;;;21.40;99.90;;;;;;4961576;28;20482;-81
2022/08/04 02:02:44;;;;;;;30.10;19.37;;;21.40;99.90;;;;;;4961750;28;20540;-81
2022/08/04 02:05:15;;;;;;;24.57;19.20;;;21.40;99.90;;;;;;4961553;28;20496;-81
2022/08/04 02:07:51;;;;;;;26.57;19.57;;;21.30;99.90;;;;;;4968240;28;20418;-81
2022/08/04 02:10:28;;;;;;;24.70;20.10;;;21.30;99.90;;;;;;4980498;28;20465;-81
2022/08/04 02:13:16;;;;;;;26.27;20.37;;;21.30;99.90;;;;;;4997768;28;20439;-81
2022/08/04 02:15:56;;;;;;;23.17;18.37;;;21.30;99.90;;;;;;4997310;28;20430;-82
2022/08/04 02:18:30;;;;;;;20.87;18.23;;;21.30;99.90;;;;;;4997674;28;20414;-81
2022/08/04 02:21:01;;;;;;;20.53;18.40;;;21.30;99.90;;;;;;4977781;28;20516;-82
2022/08/04 02:23:34;;;;;;;20.17;18.13;;;21.20;99.90;;;;;;4972522;28;20629;-81
2022/08/04 02:26:04;;;;;;;22.30;18.50;;;21.20;99.90;;;;;;4971451;28;20438;-81
2022/08/04 02:28:40;;;;;;;22.33;17.60;;;21.20;99.90;;;;;;4984554;28;20425;-81
2022/08/04 02:31:18;;;;;;;21.60;18.70;;;21.20;99.90;;;;;;4967785;28;20456;-81
2022/08/04 02:33:53;;;;;;;22.70;16.93;;;21.20;99.90;;;;;;4967625;28;20580;-82
2022/08/04 02:36:27;;;;;;;22.80;19.10;;;21.20;99.90;;;;;;4980944;28;20427;-81
2022/08/04 02:38:58;;;;;;;21.17;18.00;;;21.10;99.90;;;;;;4980021;28;20522;-81
2022/08/04 02:41:29;;;;;;;26.53;20.80;;;21.10;99.90;;;;;;4962510;28;20454;-81
2022/08/04 02:44:00;;;;;;;24.37;18.00;;;21.10;99.90;;;;;;4962634;28;20501;-81
2022/08/04 02:46:31;;;;;;;24.53;17.60;;;21.10;99.90;;;;;;4962594;28;20468;-81
2022/08/04 02:49:03;;;;;;;20.50;18.40;;;21.10;99.90;;;;;;4962619;28;20446;-81
2022/08/04 02:51:34;;;;;;;20.43;18.10;;;21.00;99.90;;;;;;4962814;28;20452;-81
2022/08/04 02:54:05;;;;;;;19.93;18.03;;;21.10;99.90;;;;;;4962675;28;20470;-81
2022/08/04 02:56:36;;;;;;;21.63;18.03;;;21.00;99.90;;;;;;4963018;28;20799;-80
2022/08/04 02:59:07;;;;;;;20.83;18.30;;;21.00;99.90;;;;;;4963039;28;20508;-81
2022/08/04 03:01:37;;;;;;;24.97;17.40;;;21.00;99.90;;;;;;4964244;28;20441;-81
2022/08/04 03:04:49;;;;;;;19.63;17.07;;;21.00;99.90;;;;;;4962812;28;20987;-81
2022/08/04 03:07:46;;;;;;;23.20;20.57;;;21.00;99.90;;;;;;4980535;28;20430;-81
2022/08/04 03:10:53;;;;;;;28.60;23.43;;;21.00;99.90;;;;;;4955449;28;20464;-81
2022/08/04 03:13:57;;;;;;;21.00;18.90;;;20.90;99.90;;;;;;4978781;28;21012;-81
2022/08/04 03:17:10;;;;;;;26.80;23.13;;;20.90;99.90;;;;;;4892718;28;20802;-81
2022/08/04 03:20:16;;;;;;;23.00;20.57;;;20.90;99.90;;;;;;4966857;28;20481;-81
2022/08/04 03:23:22;;;;;;;22.47;20.17;;;20.90;99.90;;;;;;4977471;28;20464;-81
2022/08/04 03:26:24;;;;;;;26.83;22.70;;;20.90;99.90;;;;;;4963642;28;20445;-81
2022/08/04 03:29:35;;;;;;;27.13;20.77;;;20.90;99.90;;;;;;4963748;28;20464;-80
2022/08/04 03:32:29;;;;;;;28.90;25.17;;;20.80;99.90;;;;;;4970815;28;20516;-81
2022/08/04 03:35:11;;;;;;;32.43;26.73;;;20.80;99.90;;;;;;4962399;28;20474;-81
2022/08/04 03:38:12;;;;;;;21.10;16.50;;;20.80;99.90;;;;;;4960672;28;20855;-82
2022/08/04 03:41:04;;;;;;;20.60;17.37;;;20.80;99.90;;;;;;4960800;28;20477;-82
2022/08/04 03:44:10;;;;;;;21.20;16.90;;;20.80;99.90;;;;;;4961778;28;20549;-82
2022/08/04 03:46:54;;;;;;;18.43;16.53;;;20.80;99.90;;;;;;4978443;28;20536;-81
2022/08/04 03:49:54;;;;;;;18.23;14.80;;;20.80;99.90;;;;;;4979500;28;20444;-81
2022/08/04 03:53:09;;;;;;;17.77;15.80;;;20.80;99.90;;;;;;4961249;28;20442;-81
2022/08/04 03:55:59;;;;;;;15.20;13.70;;;20.80;99.90;;;;;;4975389;28;20454;-80
2022/08/04 03:59:00;;;;;;;15.90;14.20;;;20.70;99.90;;;;;;4929441;28;20453;-81
2022/08/04 04:01:56;;;;;;;18.37;15.03;;;20.70;99.90;;;;;;4959583;28;20483;-81
2022/08/04 04:05:04;;;;;;;18.33;15.17;;;20.70;99.90;;;;;;4960653;28;21018;-81
2022/08/04 04:08:18;;;;;;;15.33;13.70;;;20.70;99.90;;;;;;4960926;28;20472;-80
2022/08/04 04:11:23;;;;;;;14.50;13.13;;;20.70;99.90;;;;;;4978043;28;20422;-81
2022/08/04 04:14:40;;;;;;;16.13;14.30;;;20.70;99.90;;;;;;4978376;28;20536;-80
2022/08/04 04:17:28;;;;;;;18.23;14.97;;;20.70;99.90;;;;;;4977639;28;20448;-80
2022/08/04 04:20:33;;;;;;;16.30;13.10;;;20.70;99.90;;;;;;4960255;28;20469;-81
2022/08/04 04:23:15;;;;;;;17.90;13.53;;;20.70;99.90;;;;;;4977160;28;20436;-80
2022/08/04 04:25:59;;;;;;;16.37;14.77;;;20.70;99.90;;;;;;4977324;28;20497;-80
2022/08/04 04:28:45;;;;;;;16.13;14.53;;;20.70;99.90;;;;;;4959155;28;20450;-80
2022/08/04 04:31:37;;;;;;;16.90;14.00;;;20.70;99.90;;;;;;4977039;28;20505;-81
2022/08/04 04:34:16;;;;;;;15.10;13.60;;;20.80;99.90;;;;;;4959510;28;20907;-81
2022/08/04 04:36:57;;;;;;;15.67;14.03;;;20.80;99.90;;;;;;4976982;28;20436;-81
2022/08/04 04:39:32;;;;;;;16.87;13.07;;;20.80;99.90;;;;;;4978355;28;20553;-81
2022/08/04 04:42:16;;;;;;;16.90;13.07;;;20.90;99.90;;;;;;4978825;28;20986;-81
2022/08/04 04:45:05;;;;;;;16.50;12.70;;;20.90;99.90;;;;;;4961786;28;20473;-80
2022/08/04 04:47:45;;;;;;;15.10;11.80;;;21.00;99.90;;;;;;4962156;28;20538;-81
2022/08/04 04:50:50;;;;;;;15.60;12.37;;;21.00;99.90;;;;;;4982507;28;20446;-81
2022/08/04 04:53:27;;;;;;;17.03;12.60;;;21.00;99.90;;;;;;4982136;28;20489;-80
2022/08/04 04:56:05;;;;;;;16.10;11.50;;;21.10;99.90;;;;;;4965203;28;20550;-81
2022/08/04 04:58:35;;;;;;;14.57;11.07;;;21.10;99.90;;;;;;4964619;28;20440;-82
2022/08/04 05:01:30;;;;;;;12.20;10.03;;;21.10;99.90;;;;;;4963351;28;20469;-81
2022/08/04 05:04:16;;;;;;;10.93;9.10;;;21.20;99.90;;;;;;4963883;28;20527;-81
2022/08/04 05:07:02;;;;;;;14.43;10.03;;;21.20;99.90;;;;;;4963011;28;20496;-82
2022/08/04 05:09:45;;;;;;;13.30;10.70;;;21.30;99.90;;;;;;4963451;28;20931;-81
2022/08/04 05:12:26;;;;;;;12.63;10.57;;;21.30;99.90;;;;;;4964424;28;20927;-81
2022/08/04 05:15:16;;;;;;;12.47;9.43;;;21.40;99.90;;;;;;4963850;28;20997;-81
2022/08/04 05:17:52;;;;;;;19.90;9.93;;;21.40;99.90;;;;;;4981028;28;20430;-81
2022/08/04 05:20:23;;;;;;;12.57;8.40;;;21.50;99.90;;;;;;4962740;28;20502;-81
2022/08/04 05:22:56;;;;;;;10.13;8.27;;;21.50;99.90;;;;;;4981516;28;20452;-80
2022/08/04 05:25:34;;;;;;;11.27;8.00;;;21.60;99.90;;;;;;4963418;28;20469;-81
2022/08/04 05:28:06;;;;;;;11.03;7.83;;;21.60;99.90;;;;;;4981675;28;20496;-79
2022/08/04 05:30:47;;;;;;;9.07;7.90;;;21.70;99.90;;;;;;4963918;28;20473;-80
2022/08/04 05:33:18;;;;;;;19.27;8.30;;;21.70;99.90;;;;;;4964492;28;20438;-80
2022/08/04 05:35:51;;;;;;;13.70;8.77;;;21.80;99.90;;;;;;4981601;28;20437;-80
2022/08/04 05:38:42;;;;;;;11.87;8.40;;;21.80;99.90;;;;;;4982519;28;20560;-80
2022/08/04 05:41:14;;;;;;;11.57;7.13;;;21.90;99.90;;;;;;4982891;28;20949;-80
2022/08/04 05:43:44;;;;;;;10.60;7.80;;;21.90;99.90;;;;;;4964660;28;20485;-80
2022/08/04 05:46:13;;;;;;;13.27;7.30;;;22.00;99.90;;;;;;4982828;28;20430;-80
2022/08/04 05:48:42;;;;;;;8.40;6.93;;;22.00;99.90;;;;;;4990116;28;20469;-80
2022/08/04 05:51:11;;;;;;;12.70;8.23;;;22.10;99.90;;;;;;4975726;28;20457;-79
2022/08/04 05:53:43;;;;;;;14.67;8.23;;;22.20;99.90;;;;;;4976810;28;20469;-80
2022/08/04 05:56:14;;;;;;;11.00;8.37;;;22.20;99.90;;;;;;4977123;28;20518;-80
2022/08/04 05:58:46;;;;;;;8.77;6.93;;;22.30;99.90;;;;;;4995889;28;20434;-80
2022/08/04 06:01:17;;;;;;;12.90;7.50;;;22.30;99.90;;;;;;4979080;28;20489;-80
2022/08/04 06:03:46;;;;;;;8.57;7.20;;;22.40;99.90;;;;;;4976899;28;20473;-81
2022/08/04 06:06:17;;;;;;;9.53;7.20;;;22.50;99.90;;;;;;4991124;28;20442;-79
2022/08/04 06:08:45;;;;;;;15.67;7.10;;;22.50;99.90;;;;;;4977351;28;20433;-80
2022/08/04 06:11:16;;;;;;;10.20;7.63;;;22.60;99.90;;;;;;4996325;28;20453;-80
2022/08/04 06:13:51;;;;;;;11.60;7.90;;;22.80;99.90;;;;;;4988540;28;20526;-80
2022/08/04 06:16:23;;;;;;;9.07;7.30;;;23.00;99.90;;;;;;4967438;28;20444;-81
2022/08/04 06:19:01;;;;;;;10.47;7.07;;;23.20;99.90;;;;;;4981583;28;20424;-81
2022/08/04 06:21:52;;;;;;;11.97;6.63;;;23.40;99.90;;;;;;4982931;28;20877;-80
2022/08/04 06:24:24;;;;;;;7.83;5.80;;;23.70;99.90;;;;;;4981155;28;20453;-80
2022/08/04 06:26:55;;;;;;;11.43;7.00;;;23.90;99.90;;;;;;4963999;28;20446;-80
2022/08/04 06:29:30;;;;;;;7.17;5.73;;;24.10;99.90;;;;;;4964412;28;20517;-81
2022/08/04 06:32:12;;;;;;;11.33;5.87;;;24.20;99.90;;;;;;4963798;28;20544;-80
2022/08/04 06:35:01;;;;;;;8.87;7.00;;;24.40;99.90;;;;;;4992089;28;20493;-81
2022/08/04 06:37:30;;;;;;;8.50;5.20;;;24.50;99.90;;;;;;4974489;28;20480;-82
2022/08/04 06:40:12;;;;;;;9.23;5.40;;;24.60;99.90;;;;;;4984814;28;20418;-81
2022/08/04 06:43:02;;;;;;;8.40;5.70;;;24.80;99.90;;;;;;4964556;28;20465;-81
2022/08/04 06:45:33;;;;;;;9.27;6.00;;;24.90;99.90;;;;;;4964614;28;20501;-81
2022/08/04 06:48:02;;;;;;;10.23;5.63;;;25.00;99.90;;;;;;4963449;28;20508;-81
2022/08/04 06:50:31;;;;;;;7.17;5.13;;;25.10;99.90;;;;;;4981622;28;20444;-81
2022/08/04 06:53:20;;;;;;;6.93;4.73;;;25.30;99.90;;;;;;4963131;28;20833;-81
2022/08/04 06:55:49;;;;;;;9.87;5.30;;;25.40;99.90;;;;;;4981192;28;20529;-81
2022/08/04 06:58:20;;;;;;;8.80;4.57;;;25.50;99.90;;;;;;4981171;28;20446;-81
2022/08/04 07:00:50;;;;;;;8.87;5.10;;;25.70;99.90;;;;;;4962768;28;20437;-82
2022/08/04 07:03:20;;;;;;;8.83;5.10;;;25.80;99.90;;;;;;4979620;28;20781;-81
2022/08/04 07:05:49;;;;;;;19.07;10.00;;;25.90;99.90;;;;;;4981340;28;20437;-81
2022/08/04 07:08:18;;;;;;;17.47;11.83;;;26.10;99.90;;;;;;4963056;28;20458;-80
2022/08/04 07:10:47;;;;;;;11.63;5.37;;;26.30;99.90;;;;;;4963340;28;20998;-80
2022/08/04 07:13:18;;;;;;;14.37;10.87;;;26.40;99.90;;;;;;4980469;28;20492;-81
2022/08/04 07:15:48;;;;;;;12.17;7.40;;;26.60;99.90;;;;;;4963570;28;20450;-81
2022/08/04 07:18:16;;;;;;;16.87;8.50;;;26.70;99.90;;;;;;4978422;28;20425;-80
2022/08/04 07:20:46;;;;;;;8.23;6.47;;;26.90;99.90;;;;;;4960938;28;20544;-80
2022/08/04 07:23:18;;;;;;;13.33;5.90;;;27.10;99.90;;;;;;4978135;28;20520;-80
2022/08/04 07:25:54;;;;;;;11.00;5.50;;;27.20;99.90;;;;;;4978014;28;20513;-81
2022/08/04 07:28:41;;;;;;;9.57;4.90;;;27.30;99.90;;;;;;4960514;28;20460;-81
2022/08/04 07:31:13;;;;;;;9.97;5.63;;;27.40;99.90;;;;;;4978032;28;20445;-82
2022/08/04 07:34:02;;;;;;;12.30;4.93;;;27.60;99.90;;;;;;4960391;28;20485;-81
2022/08/04 07:36:49;;;;;;;9.13;4.70;;;27.70;99.90;;;;;;4960031;28;20539;-81
2022/08/04 07:39:24;;;;;;;7.73;4.10;;;27.80;99.90;;;;;;4960636;28;20461;-82
2022/08/04 07:41:58;;;;;;;7.87;4.80;;;27.80;99.90;;;;;;4977221;28;20476;-80
2022/08/04 07:44:31;;;;;;;11.10;7.30;;;27.90;99.90;;;;;;4959549;28;20484;-80
2022/08/04 07:47:01;;;;;;;9.60;5.83;;;27.90;99.90;;;;;;4977090;28;20458;-80
2022/08/04 07:49:29;;;;;;;7.57;4.80;;;28.00;99.90;;;;;;4959507;28;20442;-80
2022/08/04 07:52:18;;;;;;;8.17;5.17;;;28.00;99.90;;;;;;4962527;28;20441;-81
2022/08/04 07:54:48;;;;;;;9.40;4.00;;;28.20;99.90;;;;;;4961488;28;20509;-81
2022/08/04 07:57:17;;;;;;;12.33;4.60;;;28.40;99.90;;;;;;4977556;28;20805;-81
2022/08/04 08:00:09;;;;;;;10.63;3.63;;;28.60;99.90;;;;;;4978435;28;20441;-80
2022/08/04 08:02:40;;;;;;;7.60;3.60;;;28.70;99.90;;;;;;4961440;28;20561;-80
2022/08/04 08:05:13;;;;;;;7.40;4.17;;;28.80;99.90;;;;;;4966148;28;20497;-80
2022/08/04 08:07:44;;;;;;;7.73;4.30;;;28.80;99.90;;;;;;4961662;28;20481;-80
2022/08/04 08:10:21;;;;;;;7.70;3.50;;;28.90;99.90;;;;;;4978115;28;20428;-80
2022/08/04 08:12:50;;;;;;;6.40;3.47;;;29.00;99.90;;;;;;4960612;28;20489;-81
2022/08/04 08:15:21;;;;;;;11.33;4.00;;;29.10;99.90;;;;;;4959936;28;20473;-82
2022/08/04 08:17:49;;;;;;;4.83;3.47;;;29.20;99.90;;;;;;4960694;28;20433;-80
2022/08/04 08:20:31;;;;;;;5.93;3.40;;;29.40;99.90;;;;;;4960517;28;20459;-80
2022/08/04 08:23:01;;;;;;;6.90;4.23;;;29.50;99.90;;;;;;4960481;28;20461;-81
2022/08/04 08:25:31;;;;;;;4.70;3.00;;;29.70;99.90;;;;;;4963085;28;20472;-81
2022/08/04 08:28:02;;;;;;;7.80;4.23;;;29.90;99.90;;;;;;4980440;28;20448;-80
2022/08/04 08:30:32;;;;;;;11.47;5.97;;;30.00;99.90;;;;;;4964688;28;20449;-81
2022/08/04 08:33:04;;;;;;;7.33;3.23;;;30.20;99.90;;;;;;4988303;28;20437;-81
2022/08/04 08:35:40;;;;;;;5.43;3.70;;;30.30;99.90;;;;;;4984714;28;20460;-81
2022/08/04 08:38:31;;;;;;;9.50;3.50;;;30.40;99.90;;;;;;4985706;28;20480;-82
2022/08/04 08:41:20;;;;;;;5.77;4.10;;;30.50;99.90;;;;;;4983715;28;20887;-81
2022/08/04 08:44:12;;;;;;;3.73;3.23;;;30.70;99.90;;;;;;4963985;28;20489;-81
2022/08/04 08:47:09;;;;;;;5.07;3.07;;;30.70;99.90;;;;;;4980763;28;20428;-81
2022/08/04 08:49:59;;;;;;;6.10;3.80;;;30.80;99.90;;;;;;4963547;28;20796;-80
2022/08/04 08:52:47;;;;;;;4.67;3.40;;;30.90;99.90;;;;;;4979918;28;20498;-78
2022/08/04 08:55:52;;;;;;;13.17;5.03;;;31.00;99.90;;;;;;4979781;28;20515;-79
2022/08/04 08:58:35;;;;;;;6.20;3.40;;;31.10;99.80;;;;;;4962832;28;20442;-79
2022/08/04 09:01:12;;;;;;;4.53;3.50;;;31.30;99.40;;;;;;4979944;28;20456;-79
2022/08/04 09:04:24;;;;;;;4.23;3.20;;;31.40;99.10;;;;;;4980310;28;20539;-79
2022/08/04 09:07:21;;;;;;;5.93;3.83;;;31.50;98.80;;;;;;4962753;28;20863;-79
2022/08/04 09:10:02;;;;;;;5.77;5.13;;;31.60;98.60;;;;;;4962396;28;20532;-79
2022/08/04 09:12:40;;;;;;;6.00;4.30;;;31.80;98.40;;;;;;4963641;28;20453;-79
2022/08/04 09:15:14;;;;;;;8.23;5.03;;;31.90;98.50;;;;;;4980759;28;20537;-79
2022/08/04 09:17:48;;;;;;;5.70;4.50;;;32.00;98.00;;;;;;4981312;28;20430;-80
2022/08/04 09:20:25;;;;;;;6.97;3.90;;;32.10;97.80;;;;;;4980562;28;20433;-78
2022/08/04 09:23:08;;;;;;;7.07;4.13;;;32.20;97.40;;;;;;4962305;28;20819;-78
2022/08/04 09:25:42;;;;;;;6.17;4.23;;;32.30;97.30;;;;;;4963191;28;20480;-79
2022/08/04 09:28:19;;;;;;;8.17;4.27;;;32.40;97.20;;;;;;4963196;28;20456;-79
2022/08/04 09:31:13;;;;;;;7.83;3.80;;;32.50;97.10;;;;;;4981457;28;20473;-79
2022/08/04 09:33:49;;;;;;;6.60;3.80;;;32.60;97.00;;;;;;4962454;28;20483;-81
2022/08/04 09:36:30;;;;;;;7.73;6.93;;;32.70;96.70;;;;;;4961724;28;20536;-81
2022/08/04 09:39:08;;;;;;;5.03;3.57;;;32.90;96.40;;;;;;4963362;28;20460;-81
2022/08/04 09:41:45;;;;;;;4.43;3.73;;;33.00;96.00;;;;;;4981190;28;20445;-81
2022/08/04 09:44:28;;;;;;;5.93;3.70;;;33.10;95.50;;;;;;4962661;28;20485;-81
2022/08/04 09:47:21;;;;;;;4.57;3.67;;;33.10;95.00;;;;;;4961929;28;20434;-79
2022/08/04 09:49:57;;;;;;;5.50;3.33;;;33.20;94.80;;;;;;4979763;28;20492;-80
2022/08/04 09:52:38;;;;;;;6.77;3.80;;;33.30;94.50;;;;;;4980824;28;20430;-80
2022/08/04 09:55:16;;;;;;;6.00;4.17;;;33.30;94.30;;;;;;4979523;28;20552;-80
2022/08/04 09:58:05;;;;;;;6.03;4.00;;;33.40;93.80;;;;;;4980073;28;20436;-80
2022/08/04 10:00:40;;;;;;;4.37;3.60;;;33.40;93.40;;;;;;4961794;28;20458;-80
2022/08/04 10:03:11;;;;;;;4.97;3.67;;;33.50;93.30;;;;;;4979934;28;20811;-80
2022/08/04 10:05:58;;;;;;;5.37;3.27;;;33.50;93.10;;;;;;4979735;28;20429;-80
2022/08/04 10:08:44;;;;;;;4.40;3.73;;;33.50;92.90;;;;;;4961708;28;20441;-80
2022/08/04 10:11:16;;;;;;;5.10;3.40;;;33.60;92.50;;;;;;4963693;28;20445;-80
2022/08/04 10:13:53;;;;;;;4.77;3.70;;;33.60;92.10;;;;;;4980118;28;20485;-80
2022/08/04 10:16:37;;;;;;;4.43;3.30;;;33.70;91.60;;;;;;4962538;28;20503;-80
2022/08/04 10:19:20;;;;;;;4.97;3.50;;;33.70;91.20;;;;;;4963854;28;20994;-80
2022/08/04 10:22:03;;;;;;;5.23;3.90;;;33.70;91.00;;;;;;4963929;28;21014;-80
2022/08/04 10:25:05;;;;;;;5.47;3.60;;;33.70;90.70;;;;;;4963248;28;20536;-80
2022/08/04 10:27:58;;;;;;;4.70;3.60;;;33.80;90.70;;;;;;4963482;28;20471;-80
2022/08/04 10:30:30;;;;;;;4.13;3.40;;;33.80;90.60;;;;;;4963188;28;20481;-80
2022/08/04 10:33:04;;;;;;;4.30;3.90;;;33.80;90.40;;;;;;4982603;28;20429;-80
2022/08/04 10:35:37;;;;;;;4.77;4.00;;;33.90;90.00;;;;;;4981030;28;20548;-81
2022/08/04 10:38:15;;;;;;;4.40;3.23;;;34.00;89.10;;;;;;4981870;28;20548;-81
2022/08/04 10:40:48;;;;;;;6.20;3.23;;;34.00;88.70;;;;;;4981389;28;20457;-81
2022/08/04 10:43:25;;;;;;;4.80;3.23;;;34.00;88.20;;;;;;4963740;28;20472;-81
2022/08/04 10:45:58;;;;;;;4.00;3.37;;;34.00;87.10;;;;;;4981317;28;20464;-81
2022/08/04 10:48:41;;;;;;;4.97;3.10;;;34.00;86.90;;;;;;4962969;28;20442;-81
2022/08/04 10:51:23;;;;;;;4.23;3.57;;;34.10;86.30;;;;;;4981105;28;20441;-80
2022/08/04 10:53:58;;;;;;;9.00;3.80;;;34.10;85.90;;;;;;4965567;28;21029;-81
2022/08/04 10:56:34;;;;;;;4.67;3.80;;;34.10;85.50;;;;;;4978190;28;20445;-80
2022/08/04 10:59:08;;;;;;;8.30;3.87;;;34.20;84.90;;;;;;4981309;28;20433;-81
2022/08/04 11:01:40;;;;;;;8.53;2.97;;;34.20;84.50;;;;;;4993116;28;20457;-81
2022/08/04 11:04:36;;;;;;;3.73;3.33;;;34.20;84.40;;;;;;4992687;28;20491;-81
2022/08/04 11:07:05;;;;;;;4.07;3.50;;;34.20;83.80;;;;;;4994020;28;20476;-80
2022/08/04 11:09:34;;;;;;;7.27;3.87;;;34.30;83.80;;;;;;4993935;28;20461;-81
2022/08/04 11:12:10;;;;;;;3.97;3.50;;;34.30;83.50;;;;;;4990102;28;20446;-81
2022/08/04 11:14:46;;;;;;;4.90;3.30;;;34.30;83.30;;;;;;4962285;28;20461;-80
2022/08/04 11:17:26;;;;;;;6.60;4.17;;;34.30;83.10;;;;;;4971648;28;20453;-81
2022/08/04 11:20:02;;;;;;;4.77;3.60;;;34.30;83.40;;;;;;4974625;28;20462;-79
2022/08/04 11:23:01;;;;;;;3.43;3.10;;;34.40;83.20;;;;;;4968315;28;20438;-80
2022/08/04 11:25:41;;;;;;;4.63;3.50;;;34.50;83.40;;;;;;4963773;29;20462;-80
2022/08/04 11:28:18;;;;;;;5.70;3.40;;;34.50;82.80;;;;;;4945471;29;20439;-81
2022/08/04 11:30:53;;;;;;;4.03;2.90;;;34.60;81.40;;;;;;4944479;29;20470;-80
2022/08/04 11:33:36;;;;;;;3.40;3.10;;;34.60;80.70;;;;;;4943565;29;20846;-80
2022/08/04 11:36:14;;;;;;;7.40;3.97;;;34.60;80.30;;;;;;4961783;29;20434;-80
2022/08/04 11:38:49;;;;;;;3.90;3.60;;;34.70;79.30;;;;;;4943678;29;20469;-80
2022/08/04 11:41:23;;;;;;;4.50;3.37;;;34.70;78.70;;;;;;4944276;29;20880;-80
2022/08/04 11:43:57;;;;;;;3.27;3.00;;;34.60;78.40;;;;;;4959171;29;20485;-79
2022/08/04 11:46:39;;;;;;;5.97;2.90;;;34.60;78.30;;;;;;4960096;29;20423;-78
2022/08/04 11:49:11;;;;;;;4.93;3.20;;;34.60;77.50;;;;;;4941712;29;20469;-78
2022/08/04 11:51:42;;;;;;;7.90;3.27;;;34.70;78.20;;;;;;4940213;29;20446;-78
2022/08/04 11:54:12;;;;;;;3.70;3.20;;;34.70;76.70;;;;;;4940564;29;20470;-78
2022/08/04 11:56:40;;;;;;;4.30;3.17;;;34.70;76.40;;;;;;4940488;29;20865;-79
2022/08/04 11:59:10;;;;;;;3.80;3.50;;;34.80;76.50;;;;;;4957108;29;20521;-78
2022/08/04 12:01:50;;;;;;;3.40;3.10;;;34.80;76.00;;;;;;4942280;29;21019;-79
2022/08/04 12:04:25;;;;;;;4.33;2.90;;;34.90;75.20;;;;;;4942492;29;21015;-78
2022/08/04 12:06:57;;;;;;;4.43;3.57;;;34.90;74.60;;;;;;4959077;29;20426;-80
2022/08/04 12:09:56;;;;;;;3.80;3.50;;;34.90;74.30;;;;;;4940898;29;20894;-78
2022/08/04 12:12:32;;;;;;;3.43;3.07;;;34.90;74.40;;;;;;4957448;29;20457;-78
2022/08/04 12:15:12;;;;;;;4.80;3.00;;;35.00;74.50;;;;;;4940376;29;20522;-80
2022/08/04 12:17:49;;;;;;;6.20;3.30;;;34.90;73.80;;;;;;4957241;29;20431;-81
2022/08/04 12:20:28;;;;;;;3.60;3.30;;;34.90;74.20;;;;;;4941528;29;20442;-79
2022/08/04 12:23:13;;;;;;;6.40;3.30;;;34.80;74.00;;;;;;4940604;28;20442;-80
2022/08/04 12:25:47;;;;;;;3.77;3.30;;;34.90;73.70;;;;;;4956491;29;20470;-79
2022/08/04 12:28:24;;;;;;;4.20;3.23;;;34.90;73.10;;;;;;4939874;29;20483;-80
2022/08/04 12:30:59;;;;;;;4.03;3.00;;;35.00;73.10;;;;;;4957844;29;20489;-80
2022/08/04 12:33:40;;;;;;;5.00;2.57;;;35.00;73.10;;;;;;4942092;29;20471;-80
2022/08/04 12:36:35;;;;;;;3.40;2.63;;;35.00;72.50;;;;;;4959450;29;20438;-80
2022/08/04 12:39:10;;;;;;;4.13;3.40;;;35.10;72.60;;;;;;4958960;29;20521;-79
2022/08/04 12:41:42;;;;;;;5.60;3.33;;;35.10;72.30;;;;;;4958995;29;20438;-79
2022/08/04 12:44:13;;;;;;;3.77;3.00;;;35.20;72.10;;;;;;4940928;29;21066;-79
2022/08/04 12:47:06;;;;;;;3.53;2.50;;;35.20;71.30;;;;;;4959029;29;20427;-80
2022/08/04 12:49:57;;;;;;;2.80;2.23;;;35.20;70.50;;;;;;4958587;29;20841;-80
2022/08/04 12:52:30;;;;;;;2.87;1.93;;;35.20;69.20;;;;;;4957786;29;20419;-79
2022/08/04 12:55:22;;;;;;;3.13;1.90;;;35.20;68.00;;;;;;4941002;29;20480;-79
2022/08/04 12:57:52;;;;;;;9.00;2.60;;;35.20;67.40;;;;;;4958668;29;20422;-79
2022/08/04 13:00:26;;;;;;;3.60;1.80;;;35.30;66.90;;;;;;4941140;29;20864;-80
2022/08/04 13:03:07;;;;;;;5.40;2.60;;;35.30;67.00;;;;;;4941661;29;20446;-79
2022/08/04 13:05:39;;;;;;;2.73;2.40;;;35.30;67.10;;;;;;4941008;29;20851;-80
2022/08/04 13:08:10;;;;;;;3.30;2.50;;;35.30;66.90;;;;;;4957030;29;20461;-80
2022/08/04 13:10:41;;;;;;;8.10;2.83;;;35.40;66.70;;;;;;4960097;28;20433;-79
2022/08/04 13:13:16;;;;;;;3.60;2.60;;;35.40;66.60;;;;;;4944982;29;20446;-79
2022/08/04 13:15:58;;;;;;;6.33;3.20;;;35.40;67.00;;;;;;4962167;29;20414;-79
2022/08/04 13:18:30;;;;;;;5.57;3.50;;;35.50;68.00;;;;;;4961843;29;20514;-79
2022/08/04 13:25:26;;;;;;;6.07;3.10;;;35.50;69.50;;;;;;4943323;29;20995;-79
2022/08/04 13:28:54;;;;;;;8.87;3.80;;;35.40;70.40;;;;;;4944443;29;20446;-79
2022/08/04 13:40:29;;;;;;;6.00;4.23;;;35.20;76.20;;;;;;4960254;28;20987;-78
2022/08/04 13:47:37;;;;;;;9.07;5.30;;;34.80;78.60;;;;;;4959741;29;20793;-78
2022/08/04 13:50:22;;;;;;;8.03;5.43;;;34.60;79.70;;;;;;4943229;29;20812;-79
2022/08/04 13:53:10;;;;;;;9.53;5.83;;;34.40;80.60;;;;;;4958766;23;20494;-79
2022/08/04 13:55:42;;;;;;;7.93;5.07;;;34.20;81.40;;;;;;4982197;28;20544;-82
2022/08/04 13:58:24;;;;;;;7.67;4.70;;;34.00;82.10;;;;;;5000377;28;20484;-80
2022/08/04 14:00:59;;;;;;;6.43;4.40;;;33.90;82.80;;;;;;4982623;28;20950;-81